Time;durP1;ratioP1;P1;durP2;ratioP2;P2;SDS_P1;SDS_P2;PMS_P1;PMS_P2;Temp;Humidity;BMP_temperature;BMP_pressure;BME280_temperature;BME280_humidity;BME280_pressure;Samples;Min_cycle;Max_cycle;Signal;HPM_P1;HPM_P2
2023/03/28 00:00:06;;;;;;;7.25;1.80;;;;;;;;;;5076268;28;20829;-60
2023/03/28 00:02:32;;;;;;;4.50;1.92;;;;;;;;;;5080918;28;20056;-60
2023/03/28 00:04:59;;;;;;;5.82;1.80;;;;;;;;;;5075014;28;20049;-61
2023/03/28 00:07:28;;;;;;;8.13;2.10;;;;;;;;;;5069161;28;20059;-61
2023/03/28 00:09:56;;;;;;;12.73;2.22;;;;;;;;;;5079379;28;20256;-60
2023/03/28 00:12:23;;;;;;;16.27;2.22;;;;;;;;;;5077812;28;20059;-61
2023/03/28 00:14:49;;;;;;;6.00;1.90;;;;;;;;;;5079289;28;20064;-60
2023/03/28 00:17:16;;;;;;;5.40;1.55;;;;;;;;;;5073872;28;20052;-60
2023/03/28 00:19:45;;;;;;;5.90;1.73;;;;;;;;;;5071368;28;20053;-60
2023/03/28 00:22:12;;;;;;;8.93;1.42;;;;;;;;;;5061687;28;20076;-60
2023/03/28 00:24:39;;;;;;;6.07;1.88;;;;;;;;;;5073085;28;20053;-59
2023/03/28 00:27:06;;;;;;;7.53;3.30;;;;;;;;;;5077557;28;20136;-61
2023/03/28 00:29:33;;;;;;;4.75;1.75;;;;;;;;;;5064986;28;20080;-60
2023/03/28 00:31:59;;;;;;;5.00;1.80;;;;;;;;;;5061259;28;20053;-59
2023/03/28 00:34:26;;;;;;;9.45;2.03;;;;;;;;;;5071368;28;20059;-61
2023/03/28 00:36:53;;;;;;;8.73;1.35;;;;;;;;;;5071401;28;20081;-61
2023/03/28 00:39:20;;;;;;;4.43;1.52;;;;;;;;;;5075421;28;20096;-61
2023/03/28 00:41:46;;;;;;;6.70;1.67;;;;;;;;;;5076133;28;20056;-60
2023/03/28 00:44:32;;;;;;;6.43;1.73;;;;;;;;;;5076073;28;20494;-60
2023/03/28 00:46:58;;;;;;;3.57;1.53;;;;;;;;;;5059868;28;20238;-60
2023/03/28 00:52:01;;;;;;;10.10;1.45;;;;;;;;;;5406157;22;20599;-63
2023/03/28 00:54:30;;;;;;;5.10;1.50;;;;;;;;;;5035894;28;20065;-64
2023/03/28 00:57:00;;;;;;;3.60;1.25;;;;;;;;;;5053088;22;20068;-67
2023/03/28 00:59:30;;;;;;;3.28;0.90;;;;;;;;;;5032468;28;20635;-68
2023/03/28 01:01:56;;;;;;;4.38;1.35;;;;;;;;;;5035317;28;20053;-67
2023/03/28 01:04:23;;;;;;;5.28;1.67;;;;;;;;;;5008816;28;20065;-67
2023/03/28 01:06:53;;;;;;;5.38;1.30;;;;;;;;;;5025971;28;20499;-67
2023/03/28 01:09:22;;;;;;;9.07;1.25;;;;;;;;;;5024037;28;20085;-68
2023/03/28 01:11:50;;;;;;;4.45;1.30;;;;;;;;;;5026659;28;20060;-68
2023/03/28 01:14:19;;;;;;;5.65;1.48;;;;;;;;;;5022624;28;20145;-67
2023/03/28 01:16:46;;;;;;;7.57;1.35;;;;;;;;;;5035965;28;20133;-68
2023/03/28 01:19:25;;;;;;;7.45;1.88;;;;;;;;;;5028322;28;20080;-68
2023/03/28 01:22:07;;;;;;;7.70;1.60;;;;;;;;;;5045386;28;20144;-67
2023/03/28 01:24:42;;;;;;;2.70;1.27;;;;;;;;;;5012044;28;20050;-68
2023/03/28 01:27:18;;;;;;;4.53;1.65;;;;;;;;;;5025286;28;20557;-68
2023/03/28 01:29:53;;;;;;;5.70;1.80;;;;;;;;;;5024741;28;20498;-68
2023/03/28 01:32:19;;;;;;;9.43;1.85;;;;;;;;;;5032333;28;20050;-68
2023/03/28 01:35:09;;;;;;;5.35;1.15;;;;;;;;;;5033379;28;20087;-67
2023/03/28 01:37:54;;;;;;;7.88;1.67;;;;;;;;;;5019379;28;20153;-68
2023/03/28 01:40:30;;;;;;;6.40;1.38;;;;;;;;;;5030197;28;20080;-68
2023/03/28 01:42:56;;;;;;;;;;;;;;;;;;5013986;28;20129;-68
2023/03/28 01:45:22;;;;;;;;;;;;;;;;;;5023222;28;46103;-66
2023/03/28 01:48:04;;;;;;;3.40;1.23;;;;;;;;;;5030619;28;43765;-68
2023/03/28 01:50:35;;;;;;;8.98;2.15;;;;;;;;;;5034964;28;20057;-68
2023/03/28 01:53:04;;;;;;;5.03;1.85;;;;;;;;;;5024057;28;20058;-68
2023/03/28 01:55:31;;;;;;;8.02;1.70;;;;;;;;;;5024266;28;20419;-66
2023/03/28 01:58:15;;;;;;;4.72;1.70;;;;;;;;;;5019964;28;20134;-68
2023/03/28 02:00:48;;;;;;;5.90;1.67;;;;;;;;;;5020451;28;20062;-68
2023/03/28 02:03:18;;;;;;;9.07;2.50;;;;;;;;;;5008869;28;20104;-68
2023/03/28 02:05:47;;;;;;;3.83;1.50;;;;;;;;;;5038703;28;20062;-68
2023/03/28 02:08:14;;;;;;;4.70;1.73;;;;;;;;;;5026001;28;20100;-65
2023/03/28 02:10:42;;;;;;;7.10;1.73;;;;;;;;;;5041929;28;20517;-65
2023/03/28 02:13:11;;;;;;;7.18;1.92;;;;;;;;;;5033725;28;20108;-68
2023/03/28 02:15:37;;;;;;;8.30;2.28;;;;;;;;;;5034185;28;20139;-68
2023/03/28 02:18:12;;;;;;;18.52;1.77;;;;;;;;;;5039571;28;20181;-68
2023/03/28 02:20:39;;;;;;;5.13;1.95;;;;;;;;;;5039597;28;20054;-68
2023/03/28 02:23:09;;;;;;;10.00;1.90;;;;;;;;;;5011868;28;20061;-68
2023/03/28 02:25:36;;;;;;;6.93;1.73;;;;;;;;;;5042436;28;20065;-68
2023/03/28 02:28:04;;;;;;;9.00;1.92;;;;;;;;;;5022863;28;20411;-68
2023/03/28 02:30:30;;;;;;;6.95;1.30;;;;;;;;;;5026327;28;20105;-68
2023/03/28 02:32:58;;;;;;;2.17;1.58;;;;;;;;;;5023012;28;20054;-68
2023/03/28 02:35:26;;;;;;;6.10;2.25;;;;;;;;;;5027828;28;20061;-68
2023/03/28 02:38:01;;;;;;;10.93;2.22;;;;;;;;;;5024349;28;20526;-68
2023/03/28 02:40:31;;;;;;;10.82;2.95;;;;;;;;;;5036651;28;20050;-67
2023/03/28 02:43:03;;;;;;;4.35;1.95;;;;;;;;;;5026735;28;20544;-67
2023/03/28 02:45:45;;;;;;;11.85;2.67;;;;;;;;;;5030481;28;20057;-67
2023/03/28 02:48:15;;;;;;;8.27;1.70;;;;;;;;;;5031661;28;20076;-67
2023/03/28 02:50:48;;;;;;;5.38;2.28;;;;;;;;;;5031940;28;20053;-67
2023/03/28 02:53:21;;;;;;;9.98;2.70;;;;;;;;;;5025660;28;20692;-66
2023/03/28 02:55:53;;;;;;;4.97;2.10;;;;;;;;;;5035275;28;20160;-66
2023/03/28 02:58:28;;;;;;;8.18;2.15;;;;;;;;;;5024781;28;20146;-65
2023/03/28 03:00:55;;;;;;;7.53;2.17;;;;;;;;;;5010572;28;20060;-66
2023/03/28 03:03:22;;;;;;;8.25;2.10;;;;;;;;;;5028148;28;20104;-66
2023/03/28 03:05:49;;;;;;;5.95;2.28;;;;;;;;;;5025243;28;20538;-66
2023/03/28 03:08:15;;;;;;;7.43;2.28;;;;;;;;;;5025548;28;20046;-67
2023/03/28 03:10:42;;;;;;;12.18;2.28;;;;;;;;;;5036275;28;20064;-66
2023/03/28 03:13:08;;;;;;;7.75;1.90;;;;;;;;;;5024597;28;20050;-66
2023/03/28 03:15:35;;;;;;;9.50;3.30;;;;;;;;;;5035397;28;20057;-66
2023/03/28 03:18:03;;;;;;;5.28;2.30;;;;;;;;;;5028210;28;20054;-67
2023/03/28 03:20:32;;;;;;;7.60;3.35;;;;;;;;;;5034009;28;20058;-67
2023/03/28 03:22:59;;;;;;;6.47;2.35;;;;;;;;;;5043153;28;20058;-67
2023/03/28 03:25:27;;;;;;;4.60;2.80;;;;;;;;;;5039429;28;20061;-66
2023/03/28 03:27:53;;;;;;;6.40;2.60;;;;;;;;;;5023665;28;20046;-67
2023/03/28 03:30:20;;;;;;;11.93;2.67;;;;;;;;;;5023381;28;20479;-66
2023/03/28 03:32:46;;;;;;;6.15;2.08;;;;;;;;;;5027517;28;20057;-66
2023/03/28 03:35:13;;;;;;;4.35;2.05;;;;;;;;;;5032900;28;20053;-66
2023/03/28 03:37:40;;;;;;;5.95;2.38;;;;;;;;;;5027170;28;20078;-66
2023/03/28 03:40:07;;;;;;;6.07;2.38;;;;;;;;;;5021485;28;20108;-66
2023/03/28 03:42:33;;;;;;;12.18;2.30;;;;;;;;;;5042642;28;20080;-67
2023/03/28 03:44:59;;;;;;;5.25;2.63;;;;;;;;;;5034718;28;20053;-66
2023/03/28 03:47:26;;;;;;;8.80;2.53;;;;;;;;;;5035593;28;20224;-66
2023/03/28 03:49:52;;;;;;;8.95;2.88;;;;;;;;;;5037109;28;20187;-66
2023/03/28 03:52:19;;;;;;;5.68;2.03;;;;;;;;;;5022696;28;20056;-66
2023/03/28 03:54:45;;;;;;;8.55;2.35;;;;;;;;;;5025496;28;20568;-67
2023/03/28 03:57:11;;;;;;;10.45;3.08;;;;;;;;;;5012377;28;20074;-66
2023/03/28 03:59:38;;;;;;;4.38;2.00;;;;;;;;;;5020324;28;20133;-67
2023/03/28 04:02:04;;;;;;;4.95;2.15;;;;;;;;;;5030824;28;20068;-66
2023/03/28 04:04:31;;;;;;;4.00;2.20;;;;;;;;;;5034962;28;20112;-66
2023/03/28 04:06:57;;;;;;;7.32;2.72;;;;;;;;;;5022946;28;20056;-66
2023/03/28 04:09:26;;;;;;;6.00;2.70;;;;;;;;;;5021963;28;20053;-66
2023/03/28 04:11:54;;;;;;;7.28;2.13;;;;;;;;;;5023067;28;20089;-66
2023/03/28 04:14:20;;;;;;;5.95;1.90;;;;;;;;;;5023149;28;20582;-67
2023/03/28 04:16:50;;;;;;;10.82;2.85;;;;;;;;;;5005569;28;20056;-66
2023/03/28 04:19:16;;;;;;;5.07;2.03;;;;;;;;;;5025212;28;20078;-66
2023/03/28 04:21:46;;;;;;;11.88;2.38;;;;;;;;;;5023928;28;20518;-66
2023/03/28 04:24:16;;;;;;;10.05;2.20;;;;;;;;;;5030133;28;20546;-67
2023/03/28 04:26:44;;;;;;;5.75;2.50;;;;;;;;;;5034176;28;20143;-67
2023/03/28 04:29:11;;;;;;;6.70;2.33;;;;;;;;;;5021027;28;20045;-67
2023/03/28 04:31:38;;;;;;;6.32;2.30;;;;;;;;;;5026265;28;20058;-67
2023/03/28 04:34:05;;;;;;;6.07;2.65;;;;;;;;;;5028793;28;20514;-66
2023/03/28 04:36:32;;;;;;;7.47;2.67;;;;;;;;;;5036417;28;20085;-66
2023/03/28 04:39:01;;;;;;;7.25;2.42;;;;;;;;;;5025447;28;20545;-66
2023/03/28 04:41:28;;;;;;;9.63;2.42;;;;;;;;;;5041377;28;20100;-66
2023/03/28 04:43:54;;;;;;;13.35;3.45;;;;;;;;;;5032548;28;20072;-66
2023/03/28 04:46:21;;;;;;;8.90;2.63;;;;;;;;;;5031611;28;20476;-66
2023/03/28 04:48:48;;;;;;;3.95;2.42;;;;;;;;;;5031807;28;20061;-66
2023/03/28 04:51:22;;;;;;;3.28;2.42;;;;;;;;;;5018304;28;20081;-66
2023/03/28 04:53:48;;;;;;;6.63;2.72;;;;;;;;;;5018056;28;20054;-66
2023/03/28 04:56:15;;;;;;;12.43;2.78;;;;;;;;;;5017051;28;20057;-66
2023/03/28 04:58:41;;;;;;;4.25;2.70;;;;;;;;;;5031302;28;20053;-66
2023/03/28 05:01:09;;;;;;;7.45;3.00;;;;;;;;;;5028013;28;20061;-66
2023/03/28 05:03:36;;;;;;;4.25;2.63;;;;;;;;;;5023680;28;20086;-66
2023/03/28 05:06:02;;;;;;;8.90;3.00;;;;;;;;;;5026499;28;20133;-66
2023/03/28 05:08:30;;;;;;;10.27;3.03;;;;;;;;;;5033717;28;20170;-66
2023/03/28 05:10:57;;;;;;;5.07;2.88;;;;;;;;;;5004459;28;20079;-65
2023/03/28 05:13:24;;;;;;;4.88;3.03;;;;;;;;;;5034725;28;20064;-66
2023/03/28 05:15:51;;;;;;;4.65;2.63;;;;;;;;;;5025034;28;20595;-66
2023/03/28 05:18:17;;;;;;;13.90;2.72;;;;;;;;;;5028700;28;20054;-66
2023/03/28 05:20:44;;;;;;;6.70;2.92;;;;;;;;;;5040697;28;20054;-66
2023/03/28 05:23:10;;;;;;;5.75;2.72;;;;;;;;;;5025137;28;20108;-66
2023/03/28 05:25:37;;;;;;;9.88;3.25;;;;;;;;;;5026110;28;20049;-66
2023/03/28 05:28:03;;;;;;;7.57;3.03;;;;;;;;;;5038174;28;20057;-66
2023/03/28 05:30:30;;;;;;;7.90;2.42;;;;;;;;;;5022300;28;20109;-66
2023/03/28 05:32:58;;;;;;;9.32;3.42;;;;;;;;;;5020651;28;20082;-66
2023/03/28 05:35:25;;;;;;;7.28;3.20;;;;;;;;;;5017518;28;20061;-67
2023/03/28 05:37:51;;;;;;;4.80;2.70;;;;;;;;;;5021512;28;20054;-66
2023/03/28 05:40:18;;;;;;;4.40;2.30;;;;;;;;;;5026945;28;20052;-67
2023/03/28 05:42:44;;;;;;;2.70;2.13;;;;;;;;;;5024539;28;20066;-67
2023/03/28 05:45:11;;;;;;;5.28;2.40;;;;;;;;;;5017655;28;20790;-66
2023/03/28 05:47:38;;;;;;;9.70;2.90;;;;;;;;;;5023788;28;20061;-66
2023/03/28 05:50:06;;;;;;;7.10;2.63;;;;;;;;;;5023398;28;20104;-67
2023/03/28 05:52:32;;;;;;;10.35;2.75;;;;;;;;;;5039897;28;20065;-66
2023/03/28 05:54:58;;;;;;;12.10;2.70;;;;;;;;;;5032454;28;20132;-66
2023/03/28 05:57:26;;;;;;;7.20;2.35;;;;;;;;;;5026707;28;20128;-66
2023/03/28 05:59:52;;;;;;;5.88;2.60;;;;;;;;;;5024608;28;20137;-67
2023/03/28 06:02:20;;;;;;;7.90;2.47;;;;;;;;;;5035967;28;20054;-66
2023/03/28 06:04:47;;;;;;;8.38;2.78;;;;;;;;;;5010289;28;20487;-65
2023/03/28 06:07:14;;;;;;;12.75;4.10;;;;;;;;;;5022764;28;20568;-65
2023/03/28 06:09:41;;;;;;;9.00;3.35;;;;;;;;;;5037133;28;20145;-66
2023/03/28 06:12:08;;;;;;;5.47;2.08;;;;;;;;;;5022893;28;20060;-69
2023/03/28 06:14:34;;;;;;;9.05;2.92;;;;;;;;;;5033984;28;20064;-69
2023/03/28 06:17:01;;;;;;;4.90;2.30;;;;;;;;;;5028940;28;20061;-69
2023/03/28 06:19:27;;;;;;;15.15;2.97;;;;;;;;;;5036882;28;20199;-66
2023/03/28 06:21:53;;;;;;;11.30;2.55;;;;;;;;;;5035867;28;20148;-67
2023/03/28 06:24:20;;;;;;;6.57;2.63;;;;;;;;;;5034235;28;20609;-66
2023/03/28 06:26:47;;;;;;;4.47;2.33;;;;;;;;;;5039442;28;20061;-66
2023/03/28 06:29:14;;;;;;;5.82;2.78;;;;;;;;;;5031582;28;20616;-67
2023/03/28 06:31:41;;;;;;;9.35;2.95;;;;;;;;;;5042139;28;20046;-67
2023/03/28 06:34:08;;;;;;;4.10;2.80;;;;;;;;;;5022598;28;20502;-67
2023/03/28 06:36:34;;;;;;;7.60;2.92;;;;;;;;;;5027049;28;20133;-67
2023/03/28 06:39:01;;;;;;;6.30;2.50;;;;;;;;;;5029030;28;20128;-68
2023/03/28 06:41:27;;;;;;;5.63;2.92;;;;;;;;;;5031447;28;20054;-66
2023/03/28 06:43:53;;;;;;;8.57;3.63;;;;;;;;;;5031461;28;20046;-66
2023/03/28 06:46:20;;;;;;;11.13;4.05;;;;;;;;;;5021768;28;20052;-65
2023/03/28 06:48:46;;;;;;;10.00;3.30;;;;;;;;;;5027952;28;20050;-65
2023/03/28 06:51:13;;;;;;;11.23;3.05;;;;;;;;;;5024185;28;20152;-66
2023/03/28 06:53:39;;;;;;;8.25;2.95;;;;;;;;;;5032045;28;20061;-66
2023/03/28 06:56:06;;;;;;;10.80;2.80;;;;;;;;;;5034848;28;21023;-65
2023/03/28 06:58:33;;;;;;;9.05;3.17;;;;;;;;;;5043791;28;20077;-65
2023/03/28 07:00:59;;;;;;;8.80;2.92;;;;;;;;;;5028156;28;20401;-65
2023/03/28 07:03:28;;;;;;;6.03;2.83;;;;;;;;;;5021281;28;20509;-66
2023/03/28 07:05:55;;;;;;;5.68;2.63;;;;;;;;;;5034156;28;20100;-66
2023/03/28 07:08:22;;;;;;;6.40;2.25;;;;;;;;;;5029135;28;20141;-66
2023/03/28 07:10:48;;;;;;;5.80;2.40;;;;;;;;;;5020400;28;20703;-67
2023/03/28 07:13:15;;;;;;;8.48;2.97;;;;;;;;;;5022485;28;20058;-66
2023/03/28 07:15:41;;;;;;;5.35;2.75;;;;;;;;;;5023729;28;20046;-66
2023/03/28 07:18:10;;;;;;;6.90;2.80;;;;;;;;;;5028078;28;20050;-66
2023/03/28 07:20:38;;;;;;;6.72;2.13;;;;;;;;;;5023138;28;20053;-65
2023/03/28 07:23:05;;;;;;;6.68;2.30;;;;;;;;;;5021698;28;20099;-65
2023/03/28 07:25:32;;;;;;;5.00;2.33;;;;;;;;;;5032203;28;20049;-65
2023/03/28 07:27:58;;;;;;;9.82;2.95;;;;;;;;;;5029694;28;20085;-65
2023/03/28 07:30:25;;;;;;;3.25;2.20;;;;;;;;;;5023194;28;20149;-68
2023/03/28 07:32:52;;;;;;;8.55;3.13;;;;;;;;;;5034226;28;20081;-67
2023/03/28 07:35:40;;;;;;;8.95;3.03;;;;;;;;;;5026960;28;20153;-67
2023/03/28 07:38:06;;;;;;;8.00;2.95;;;;;;;;;;5030407;28;20049;-66
2023/03/28 07:40:33;;;;;;;8.65;3.40;;;;;;;;;;5034914;28;20092;-66
2023/03/28 07:42:59;;;;;;;10.02;3.88;;;;;;;;;;5030556;28;20080;-67
2023/03/28 07:45:26;;;;;;;4.38;3.03;;;;;;;;;;5002172;28;20081;-67
2023/03/28 07:47:53;;;;;;;5.93;3.00;;;;;;;;;;5018977;28;20590;-65
2023/03/28 07:50:20;;;;;;;8.90;2.90;;;;;;;;;;5033723;28;20057;-65
2023/03/28 07:52:56;;;;;;;14.85;3.25;;;;;;;;;;5022446;28;20645;-64
2023/03/28 07:55:24;;;;;;;5.40;2.65;;;;;;;;;;5004870;28;20536;-64
2023/03/28 07:57:51;;;;;;;6.65;3.60;;;;;;;;;;5024878;28;20448;-65
2023/03/28 08:00:18;;;;;;;13.52;3.45;;;;;;;;;;5028256;28;20525;-65
2023/03/28 08:02:44;;;;;;;7.85;4.15;;;;;;;;;;5034551;28;20061;-67
2023/03/28 08:05:11;;;;;;;8.65;3.33;;;;;;;;;;5019642;28;21014;-67
2023/03/28 08:07:40;;;;;;;7.38;3.20;;;;;;;;;;5008294;28;20538;-67
2023/03/28 08:10:07;;;;;;;6.80;3.45;;;;;;;;;;5028268;28;20057;-66
2023/03/28 08:12:34;;;;;;;14.48;4.13;;;;;;;;;;5037929;28;20046;-67
2023/03/28 08:15:00;;;;;;;10.73;3.70;;;;;;;;;;5021362;28;20064;-67
2023/03/28 08:17:27;;;;;;;9.25;2.95;;;;;;;;;;5027247;28;20054;-66
2023/03/28 08:19:54;;;;;;;6.05;2.75;;;;;;;;;;5022952;28;20124;-69
2023/03/28 08:22:20;;;;;;;10.27;3.28;;;;;;;;;;5022449;28;20808;-68
2023/03/28 08:24:46;;;;;;;8.80;3.22;;;;;;;;;;5022604;28;20089;-69
2023/03/28 08:27:13;;;;;;;10.23;3.17;;;;;;;;;;5021298;28;20057;-68
2023/03/28 08:29:39;;;;;;;6.30;2.92;;;;;;;;;;5020504;28;20145;-67
2023/03/28 08:32:06;;;;;;;6.90;3.15;;;;;;;;;;5022516;28;20049;-67
2023/03/28 08:34:32;;;;;;;10.93;3.22;;;;;;;;;;5022517;28;20050;-66
2023/03/28 08:36:59;;;;;;;9.23;2.95;;;;;;;;;;5018209;28;20124;-66
2023/03/28 08:39:25;;;;;;;6.88;2.83;;;;;;;;;;5004323;28;20049;-67
2023/03/28 08:41:58;;;;;;;6.93;2.58;;;;;;;;;;5022599;28;20069;-66
2023/03/28 08:44:43;;;;;;;8.57;2.75;;;;;;;;;;5022458;28;20546;-66
2023/03/28 08:47:18;;;;;;;7.80;2.47;;;;;;;;;;5025108;28;20050;-67
2023/03/28 08:49:47;;;;;;;6.97;3.05;;;;;;;;;;5020360;28;20060;-66
2023/03/28 08:52:16;;;;;;;7.90;3.00;;;;;;;;;;5020479;28;20108;-66
2023/03/28 08:54:42;;;;;;;8.23;3.20;;;;;;;;;;5020341;28;20057;-67
2023/03/28 08:57:12;;;;;;;7.18;2.95;;;;;;;;;;5025304;28;20058;-66
2023/03/28 08:59:39;;;;;;;4.90;2.70;;;;;;;;;;5028423;28;20553;-66
2023/03/28 09:02:15;;;;;;;6.05;2.42;;;;;;;;;;5021378;28;20073;-66
2023/03/28 09:04:42;;;;;;;12.77;2.70;;;;;;;;;;5026188;28;20065;-66
2023/03/28 09:07:26;;;;;;;8.90;3.15;;;;;;;;;;5022403;28;21911;-67
2023/03/28 09:10:02;;;;;;;6.90;2.08;;;;;;;;;;5005564;28;20049;-67
2023/03/28 09:12:28;;;;;;;;;;;;;;;;;;5020716;28;20519;-67
2023/03/28 09:14:56;;;;;;;10.68;2.47;;;;;;;;;;5039285;28;42203;-66
2023/03/28 09:17:31;;;;;;;7.75;2.20;;;;;;;;;;5024379;28;20510;-67
2023/03/28 09:20:10;;;;;;;6.40;2.95;;;;;;;;;;5036379;28;20045;-67
2023/03/28 09:22:36;;;;;;;4.47;2.25;;;;;;;;;;5040672;28;20058;-66
2023/03/28 09:25:12;;;;;;;8.63;1.90;;;;;;;;;;5025910;28;20140;-65
2023/03/28 09:27:53;;;;;;;7.68;2.38;;;;;;;;;;5035448;28;20133;-66
2023/03/28 09:30:23;;;;;;;6.97;2.60;;;;;;;;;;5030121;28;20058;-66
2023/03/28 09:32:51;;;;;;;4.95;2.22;;;;;;;;;;5035481;28;20052;-66
2023/03/28 09:35:19;;;;;;;12.85;2.65;;;;;;;;;;5022068;28;21095;-66
2023/03/28 09:37:49;;;;;;;3.45;1.98;;;;;;;;;;5031321;28;20904;-66
2023/03/28 09:40:15;;;;;;;7.25;2.22;;;;;;;;;;5029053;28;20061;-66
2023/03/28 09:42:51;;;;;;;5.53;2.30;;;;;;;;;;5025586;28;20058;-66
2023/03/28 09:45:17;;;;;;;;;;;;;;;;;;5023304;28;20054;-66
2023/03/28 09:47:46;;;;;;;5.22;2.28;;;;;;;;;;5025642;28;42631;-67
2023/03/28 09:50:14;;;;;;;6.20;2.70;;;;;;;;;;5022284;28;20696;-66
2023/03/28 09:52:41;;;;;;;7.38;2.75;;;;;;;;;;5024589;28;20204;-66
2023/03/28 09:55:34;;;;;;;12.98;2.85;;;;;;;;;;5024000;28;20863;-66
2023/03/28 09:58:08;;;;;;;5.70;2.58;;;;;;;;;;5032564;28;20506;-67
2023/03/28 10:00:39;;;;;;;8.65;2.67;;;;;;;;;;5022658;28;20046;-65
2023/03/28 10:03:14;;;;;;;4.53;2.60;;;;;;;;;;5024001;28;20089;-67
2023/03/28 10:05:42;;;;;;;;;;;;;;;;;;4997775;28;20056;-65
2023/03/28 10:08:34;;;;;;;9.20;2.58;;;;;;;;;;5038466;28;41131;-66
2023/03/28 10:11:08;;;;;;;12.57;3.22;;;;;;;;;;5042074;28;20053;-66
2023/03/28 10:13:36;;;;;;;5.40;2.42;;;;;;;;;;5033342;28;20053;-66
2023/03/28 10:16:03;;;;;;;4.72;2.70;;;;;;;;;;5026466;28;20054;-66
2023/03/28 10:18:30;;;;;;;7.95;2.67;;;;;;;;;;5021731;28;20085;-66
2023/03/28 10:21:01;;;;;;;7.22;2.47;;;;;;;;;;5029959;28;20120;-65
2023/03/28 10:23:28;;;;;;;10.65;2.50;;;;;;;;;;5025160;28;20076;-66
2023/03/28 10:26:00;;;;;;;5.30;2.85;;;;;;;;;;5029871;28;20489;-66
2023/03/28 10:28:31;;;;;;;7.82;2.45;;;;;;;;;;5032797;28;20089;-66
2023/03/28 10:31:00;;;;;;;3.50;2.40;;;;;;;;;;5018990;28;20549;-66
2023/03/28 10:33:30;;;;;;;5.47;2.30;;;;;;;;;;5030559;28;20057;-67
2023/03/28 10:36:08;;;;;;;5.55;2.25;;;;;;;;;;5035659;28;20658;-67
2023/03/28 10:38:45;;;;;;;7.10;2.30;;;;;;;;;;5031999;28;20431;-66
2023/03/28 10:41:19;;;;;;;5.43;2.83;;;;;;;;;;5023117;28;20505;-67
2023/03/28 10:43:46;;;;;;;7.97;2.85;;;;;;;;;;5013160;28;20491;-66
2023/03/28 10:46:23;;;;;;;5.97;2.45;;;;;;;;;;5025964;28;20058;-67
2023/03/28 10:49:00;;;;;;;5.70;2.10;;;;;;;;;;5012761;28;20124;-66
2023/03/28 10:51:27;;;;;;;4.07;2.20;;;;;;;;;;5026235;28;20545;-66
2023/03/28 10:53:53;;;;;;;4.13;1.90;;;;;;;;;;5024560;28;20140;-66
2023/03/28 10:56:40;;;;;;;4.18;2.03;;;;;;;;;;5024563;28;20061;-66
2023/03/28 10:59:25;;;;;;;4.50;1.60;;;;;;;;;;5022683;28;20049;-66
2023/03/28 11:01:58;;;;;;;6.67;1.67;;;;;;;;;;5015782;28;20543;-66
2023/03/28 11:04:26;;;;;;;5.78;1.40;;;;;;;;;;5029750;28;20048;-66
2023/03/28 11:06:56;;;;;;;3.00;1.63;;;;;;;;;;5030638;28;20771;-66
2023/03/28 11:09:30;;;;;;;7.18;2.22;;;;;;;;;;5035795;28;20082;-66
2023/03/28 11:12:32;;;;;;;4.63;1.70;;;;;;;;;;5038311;28;20063;-67
2023/03/28 11:15:20;;;;;;;2.65;1.40;;;;;;;;;;4985379;28;20058;-66
2023/03/28 11:18:10;;;;;;;7.57;1.90;;;;;;;;;;4986970;28;20058;-67
2023/03/28 11:20:39;;;;;;;4.90;1.45;;;;;;;;;;4961483;28;20051;-67
2023/03/28 11:23:16;;;;;;;3.42;1.75;;;;;;;;;;4980463;28;20581;-66
2023/03/28 11:25:48;;;;;;;2.35;1.27;;;;;;;;;;4981715;28;20498;-67
2023/03/28 11:28:23;;;;;;;4.78;1.70;;;;;;;;;;4993917;28;20055;-66
2023/03/28 11:30:53;;;;;;;6.57;1.40;;;;;;;;;;4980616;28;20122;-67
2023/03/28 11:33:29;;;;;;;5.47;1.60;;;;;;;;;;4993906;28;20112;-67
2023/03/28 11:36:02;;;;;;;3.40;1.40;;;;;;;;;;4988030;28;20094;-66
2023/03/28 11:38:32;;;;;;;5.63;1.60;;;;;;;;;;4980286;28;20564;-66
2023/03/28 11:40:59;;;;;;;5.05;2.10;;;;;;;;;;4999707;28;20054;-67
2023/03/28 11:43:31;;;;;;;8.60;2.00;;;;;;;;;;4983204;28;20066;-67
2023/03/28 11:46:19;;;;;;;7.80;2.00;;;;;;;;;;4993215;28;20110;-67
2023/03/28 11:48:50;;;;;;;5.70;2.08;;;;;;;;;;4998288;28;20050;-66
2023/03/28 11:51:16;;;;;;;6.50;2.63;;;;;;;;;;5023382;28;20046;-66
2023/03/28 11:53:49;;;;;;;8.07;2.60;;;;;;;;;;5022071;28;20830;-66
2023/03/28 11:56:27;;;;;;;6.35;2.15;;;;;;;;;;5034659;28;20146;-66
2023/03/28 11:58:57;;;;;;;8.50;2.30;;;;;;;;;;5023407;28;20064;-65
2023/03/28 12:01:26;;;;;;;5.65;2.38;;;;;;;;;;5019438;28;20054;-65
2023/03/28 12:03:57;;;;;;;6.72;2.45;;;;;;;;;;5030661;28;20053;-65
2023/03/28 12:06:28;;;;;;;2.95;1.58;;;;;;;;;;5031098;28;20133;-65
2023/03/28 12:08:58;;;;;;;3.38;2.17;;;;;;;;;;5022959;28;20073;-67
2023/03/28 12:11:45;;;;;;;5.03;1.90;;;;;;;;;;5023027;28;20497;-66
2023/03/28 12:14:11;;;;;;;4.18;2.58;;;;;;;;;;5009468;28;20049;-66
2023/03/28 12:16:41;;;;;;;5.15;2.05;;;;;;;;;;5042137;28;20533;-66
2023/03/28 12:19:10;;;;;;;6.20;2.10;;;;;;;;;;5035762;28;20056;-66
2023/03/28 12:21:40;;;;;;;5.07;1.98;;;;;;;;;;5024034;28;20057;-67
2023/03/28 12:24:19;;;;;;;9.57;1.98;;;;;;;;;;5028004;28;20511;-67
2023/03/28 12:26:58;;;;;;;5.20;1.70;;;;;;;;;;5041351;28;20615;-66
2023/03/28 12:29:30;;;;;;;3.70;1.70;;;;;;;;;;5023296;28;20058;-66
2023/03/28 12:32:00;;;;;;;4.38;1.77;;;;;;;;;;5022213;28;20053;-68
2023/03/28 12:34:35;;;;;;;7.18;2.13;;;;;;;;;;5018868;28;20057;-67
2023/03/28 12:37:21;;;;;;;4.70;1.80;;;;;;;;;;5020685;28;20053;-66
2023/03/28 12:39:54;;;;;;;5.85;1.52;;;;;;;;;;5019464;28;20052;-66
2023/03/28 12:42:22;;;;;;;4.95;1.75;;;;;;;;;;5023295;28;20855;-66
2023/03/28 12:44:52;;;;;;;4.20;2.00;;;;;;;;;;5038899;28;20076;-65
2023/03/28 12:47:23;;;;;;;7.10;2.15;;;;;;;;;;5021468;28;20528;-64
2023/03/28 12:49:53;;;;;;;9.25;2.00;;;;;;;;;;5026838;28;20120;-66
2023/03/28 12:52:25;;;;;;;4.63;1.73;;;;;;;;;;5016227;28;20132;-66
2023/03/28 12:54:59;;;;;;;8.10;1.70;;;;;;;;;;5025160;28;20057;-67
2023/03/28 12:57:39;;;;;;;5.13;1.77;;;;;;;;;;5020527;28;20538;-66
2023/03/28 13:00:09;;;;;;;2.97;1.85;;;;;;;;;;5025115;28;20108;-67
2023/03/28 13:02:46;;;;;;;4.95;1.98;;;;;;;;;;5024015;28;20058;-67
2023/03/28 13:05:15;;;;;;;5.43;2.08;;;;;;;;;;5025093;28;20058;-66
2023/03/28 13:07:59;;;;;;;4.32;1.67;;;;;;;;;;5028595;28;20498;-66
2023/03/28 13:10:28;;;;;;;3.92;2.10;;;;;;;;;;5044005;28;20049;-67
2023/03/28 13:13:04;;;;;;;12.10;2.00;;;;;;;;;;5024686;28;20057;-67
2023/03/28 13:15:31;;;;;;;3.25;1.60;;;;;;;;;;5024161;28;20054;-67
2023/03/28 13:18:16;;;;;;;13.02;2.20;;;;;;;;;;5029287;28;20054;-68
2023/03/28 13:20:44;;;;;;;10.23;2.10;;;;;;;;;;5036655;28;20517;-67
2023/03/28 13:23:11;;;;;;;2.28;1.70;;;;;;;;;;5025755;28;20482;-66
2023/03/28 13:25:38;;;;;;;4.22;1.60;;;;;;;;;;5021655;28;20065;-66
2023/03/28 13:28:10;;;;;;;5.13;2.00;;;;;;;;;;5034430;28;20597;-65
2023/03/28 13:30:39;;;;;;;5.35;2.13;;;;;;;;;;5031441;28;20123;-66
2023/03/28 13:33:12;;;;;;;4.93;2.10;;;;;;;;;;5037257;28;20550;-65
2023/03/28 13:35:44;;;;;;;11.73;2.35;;;;;;;;;;5026877;28;20054;-65
2023/03/28 13:38:19;;;;;;;10.73;3.25;;;;;;;;;;5031836;28;20712;-66
2023/03/28 13:40:50;;;;;;;5.18;2.10;;;;;;;;;;5022330;28;20599;-66
2023/03/28 13:43:24;;;;;;;5.45;2.10;;;;;;;;;;5012107;28;20054;-66
2023/03/28 13:45:53;;;;;;;7.10;1.95;;;;;;;;;;5025220;28;20132;-68
2023/03/28 13:48:23;;;;;;;3.60;2.22;;;;;;;;;;5024887;28;20137;-67
2023/03/28 13:50:51;;;;;;;8.40;2.17;;;;;;;;;;5039174;28;20045;-67
2023/03/28 13:53:17;;;;;;;4.32;1.90;;;;;;;;;;5031204;28;20542;-67
2023/03/28 13:55:43;;;;;;;10.80;2.53;;;;;;;;;;5013755;28;20053;-67
2023/03/28 13:58:11;;;;;;;4.60;2.22;;;;;;;;;;5018090;28;20062;-66
2023/03/28 14:00:38;;;;;;;7.57;2.45;;;;;;;;;;5025101;28;20046;-67
2023/03/28 14:03:11;;;;;;;3.90;2.25;;;;;;;;;;5035383;28;20150;-67
2023/03/28 14:05:42;;;;;;;6.82;2.58;;;;;;;;;;5033480;28;20077;-67
2023/03/28 14:08:12;;;;;;;6.32;2.15;;;;;;;;;;5024009;28;20057;-66
2023/03/28 14:10:40;;;;;;;4.72;2.67;;;;;;;;;;5028068;28;20050;-66
2023/03/28 14:13:21;;;;;;;8.45;2.53;;;;;;;;;;5024951;28;20050;-67
2023/03/28 14:15:50;;;;;;;5.47;2.33;;;;;;;;;;5017097;28;20049;-66
2023/03/28 14:18:20;;;;;;;5.63;2.80;;;;;;;;;;5004791;28;20239;-66
2023/03/28 14:20:46;;;;;;;10.90;2.83;;;;;;;;;;5022081;28;20061;-67
2023/03/28 14:23:26;;;;;;;5.57;3.05;;;;;;;;;;5026923;28;20069;-64
2023/03/28 14:25:52;;;;;;;7.63;2.67;;;;;;;;;;5009498;28;20054;-67
2023/03/28 14:28:25;;;;;;;6.35;2.45;;;;;;;;;;5008515;28;20494;-67
2023/03/28 14:30:52;;;;;;;4.40;2.45;;;;;;;;;;5027141;28;20049;-67
2023/03/28 14:33:19;;;;;;;8.43;3.13;;;;;;;;;;5025294;28;20054;-66
2023/03/28 14:36:00;;;;;;;6.45;2.38;;;;;;;;;;5006217;28;20180;-66
2023/03/28 14:38:31;;;;;;;7.55;2.38;;;;;;;;;;5028881;28;20085;-66
2023/03/28 14:41:28;;;;;;;6.50;2.80;;;;;;;;;;5031481;28;20050;-67
2023/03/28 14:43:56;;;;;;;4.00;2.28;;;;;;;;;;5007221;28;20049;-67
2023/03/28 14:46:24;;;;;;;5.70;2.03;;;;;;;;;;5030726;28;20135;-67
2023/03/28 14:48:52;;;;;;;9.80;2.65;;;;;;;;;;5036068;28;20119;-66
2023/03/28 14:51:22;;;;;;;6.38;2.50;;;;;;;;;;5025192;28;20540;-67
2023/03/28 14:53:50;;;;;;;6.78;2.45;;;;;;;;;;5003790;28;20498;-66
2023/03/28 14:56:24;;;;;;;4.85;2.20;;;;;;;;;;5026219;28;20050;-66
2023/03/28 14:58:53;;;;;;;4.80;2.03;;;;;;;;;;5030010;28;20507;-66
2023/03/28 15:01:22;;;;;;;5.57;2.90;;;;;;;;;;5022746;28;20141;-66